sensor_id;sensor_type;location;lat;lon;timestamp;P1;durP1;ratioP1;P2;durP2;ratioP2
62338;SDS011;48368;53.406;6.214;2023-02-20T00:00:29;20.50;;;8.70;;
62338;SDS011;48368;53.406;6.214;2023-02-20T00:02:57;22.70;;;10.47;;
62338;SDS011;48368;53.406;6.214;2023-02-20T00:05:23;20.90;;;9.93;;
62338;SDS011;48368;53.406;6.214;2023-02-20T00:07:49;23.67;;;10.55;;
62338;SDS011;48368;53.406;6.214;2023-02-20T00:10:14;23.25;;;10.82;;
62338;SDS011;48368;53.406;6.214;2023-02-20T00:12:40;27.80;;;11.55;;
62338;SDS011;48368;53.406;6.214;2023-02-20T00:15:07;28.75;;;10.98;;
62338;SDS011;48368;53.406;6.214;2023-02-20T00:17:33;27.88;;;12.27;;
62338;SDS011;48368;53.406;6.214;2023-02-20T00:19:59;25.80;;;11.82;;
62338;SDS011;48368;53.406;6.214;2023-02-20T00:22:26;27.80;;;11.80;;
62338;SDS011;48368;53.406;6.214;2023-02-20T00:24:52;26.73;;;13.38;;
62338;SDS011;48368;53.406;6.214;2023-02-20T00:27:18;32.03;;;12.98;;
62338;SDS011;48368;53.406;6.214;2023-02-20T00:29:44;37.53;;;14.32;;
62338;SDS011;48368;53.406;6.214;2023-02-20T00:32:10;30.20;;;13.35;;
62338;SDS011;48368;53.406;6.214;2023-02-20T00:34:36;32.28;;;13.52;;
62338;SDS011;48368;53.406;6.214;2023-02-20T00:37:02;32.97;;;14.27;;
62338;SDS011;48368;53.406;6.214;2023-02-20T00:39:28;41.70;;;14.77;;
62338;SDS011;48368;53.406;6.214;2023-02-20T00:41:55;37.45;;;13.10;;
62338;SDS011;48368;53.406;6.214;2023-02-20T00:44:21;32.90;;;14.32;;
62338;SDS011;48368;53.406;6.214;2023-02-20T00:46:47;29.25;;;13.30;;
62338;SDS011;48368;53.406;6.214;2023-02-20T00:49:12;30.65;;;13.68;;
62338;SDS011;48368;53.406;6.214;2023-02-20T00:51:38;38.10;;;14.27;;
62338;SDS011;48368;53.406;6.214;2023-02-20T00:54:04;34.25;;;13.52;;
62338;SDS011;48368;53.406;6.214;2023-02-20T00:56:30;37.78;;;14.57;;
62338;SDS011;48368;53.406;6.214;2023-02-20T00:58:55;37.90;;;14.30;;
62338;SDS011;48368;53.406;6.214;2023-02-20T01:01:21;42.55;;;15.75;;
62338;SDS011;48368;53.406;6.214;2023-02-20T01:03:47;36.45;;;14.77;;
62338;SDS011;48368;53.406;6.214;2023-02-20T01:06:13;34.63;;;15.23;;
62338;SDS011;48368;53.406;6.214;2023-02-20T01:08:39;34.50;;;14.10;;
62338;SDS011;48368;53.406;6.214;2023-02-20T01:11:04;38.65;;;15.25;;
62338;SDS011;48368;53.406;6.214;2023-02-20T01:13:30;41.75;;;16.80;;
62338;SDS011;48368;53.406;6.214;2023-02-20T01:15:56;34.88;;;13.80;;
62338;SDS011;48368;53.406;6.214;2023-02-20T01:18:21;40.28;;;15.23;;
62338;SDS011;48368;53.406;6.214;2023-02-20T01:20:47;39.22;;;16.80;;
62338;SDS011;48368;53.406;6.214;2023-02-20T01:23:13;38.47;;;15.60;;
62338;SDS011;48368;53.406;6.214;2023-02-20T01:25:38;43.70;;;15.80;;
62338;SDS011;48368;53.406;6.214;2023-02-20T01:28:04;38.00;;;15.05;;
62338;SDS011;48368;53.406;6.214;2023-02-20T01:30:30;41.55;;;15.10;;
62338;SDS011;48368;53.406;6.214;2023-02-20T01:32:56;39.75;;;15.65;;
62338;SDS011;48368;53.406;6.214;2023-02-20T01:35:21;42.40;;;17.20;;
62338;SDS011;48368;53.406;6.214;2023-02-20T01:37:47;41.08;;;14.95;;
62338;SDS011;48368;53.406;6.214;2023-02-20T01:40:14;44.38;;;15.57;;
62338;SDS011;48368;53.406;6.214;2023-02-20T01:42:42;39.00;;;13.75;;
62338;SDS011;48368;53.406;6.214;2023-02-20T01:47:46;37.20;;;14.43;;
62338;SDS011;48368;53.406;6.214;2023-02-20T01:50:13;39.60;;;14.52;;
62338;SDS011;48368;53.406;6.214;2023-02-20T01:52:40;40.25;;;14.35;;
62338;SDS011;48368;53.406;6.214;2023-02-20T01:55:12;34.72;;;14.95;;
62338;SDS011;48368;53.406;6.214;2023-02-20T01:57:47;32.03;;;12.93;;
62338;SDS011;48368;53.406;6.214;2023-02-20T02:00:17;40.05;;;14.57;;
62338;SDS011;48368;53.406;6.214;2023-02-20T02:02:51;39.25;;;14.98;;
62338;SDS011;48368;53.406;6.214;2023-02-20T02:05:26;34.72;;;14.13;;
62338;SDS011;48368;53.406;6.214;2023-02-20T02:07:54;34.90;;;13.05;;
62338;SDS011;48368;53.406;6.214;2023-02-20T02:10:28;39.67;;;13.30;;
62338;SDS011;48368;53.406;6.214;2023-02-20T02:12:58;34.63;;;11.90;;
62338;SDS011;48368;53.406;6.214;2023-02-20T02:15:25;30.02;;;10.68;;
62338;SDS011;48368;53.406;6.214;2023-02-20T02:31:27;30.60;;;10.77;;
62338;SDS011;48368;53.406;6.214;2023-02-20T02:42:04;33.80;;;11.40;;
62338;SDS011;48368;53.406;6.214;2023-02-20T02:47:10;34.15;;;12.93;;
62338;SDS011;48368;53.406;6.214;2023-02-20T02:49:55;36.17;;;10.27;;
62338;SDS011;48368;53.406;6.214;2023-02-20T02:52:23;29.65;;;10.75;;
62338;SDS011;48368;53.406;6.214;2023-02-20T02:55:13;33.05;;;12.98;;
62338;SDS011;48368;53.406;6.214;2023-02-20T02:57:41;30.70;;;9.80;;
62338;SDS011;48368;53.406;6.214;2023-02-20T03:00:08;28.35;;;11.55;;
62338;SDS011;48368;53.406;6.214;2023-02-20T03:02:37;44.30;;;11.05;;
62338;SDS011;48368;53.406;6.214;2023-02-20T03:05:08;38.15;;;11.57;;
62338;SDS011;48368;53.406;6.214;2023-02-20T03:07:36;33.55;;;10.80;;
62338;SDS011;48368;53.406;6.214;2023-02-20T03:10:06;39.15;;;11.48;;
62338;SDS011;48368;53.406;6.214;2023-02-20T03:12:34;40.40;;;12.23;;
62338;SDS011;48368;53.406;6.214;2023-02-20T03:15:05;30.70;;;10.43;;
62338;SDS011;48368;53.406;6.214;2023-02-20T03:18:04;28.98;;;11.40;;
62338;SDS011;48368;53.406;6.214;2023-02-20T03:20:53;30.15;;;12.27;;
62338;SDS011;48368;53.406;6.214;2023-02-20T03:23:23;32.03;;;10.75;;
62338;SDS011;48368;53.406;6.214;2023-02-20T03:26:03;30.23;;;10.20;;
62338;SDS011;48368;53.406;6.214;2023-02-20T03:28:34;29.75;;;11.57;;
62338;SDS011;48368;53.406;6.214;2023-02-20T03:36:23;36.28;;;10.50;;
62338;SDS011;48368;53.406;6.214;2023-02-20T03:39:12;31.48;;;11.13;;
62338;SDS011;48368;53.406;6.214;2023-02-20T03:42:00;32.75;;;9.40;;
62338;SDS011;48368;53.406;6.214;2023-02-20T03:44:49;38.83;;;8.88;;
62338;SDS011;48368;53.406;6.214;2023-02-20T03:47:16;30.10;;;8.55;;
62338;SDS011;48368;53.406;6.214;2023-02-20T03:49:44;30.58;;;8.63;;
62338;SDS011;48368;53.406;6.214;2023-02-20T03:52:13;30.73;;;8.55;;
62338;SDS011;48368;53.406;6.214;2023-02-20T03:54:39;30.92;;;8.93;;
62338;SDS011;48368;53.406;6.214;2023-02-20T03:57:10;25.85;;;8.25;;
62338;SDS011;48368;53.406;6.214;2023-02-20T03:59:47;24.05;;;8.15;;
62338;SDS011;48368;53.406;6.214;2023-02-20T04:02:38;35.80;;;8.32;;
62338;SDS011;48368;53.406;6.214;2023-02-20T04:05:08;30.25;;;8.65;;
62338;SDS011;48368;53.406;6.214;2023-02-20T04:10:13;29.60;;;7.93;;
62338;SDS011;48368;53.406;6.214;2023-02-20T04:12:43;33.00;;;8.90;;
62338;SDS011;48368;53.406;6.214;2023-02-20T04:15:11;26.35;;;7.80;;
62338;SDS011;48368;53.406;6.214;2023-02-20T04:17:40;31.75;;;8.50;;
62338;SDS011;48368;53.406;6.214;2023-02-20T04:20:12;30.10;;;8.70;;
62338;SDS011;48368;53.406;6.214;2023-02-20T04:22:38;28.23;;;9.30;;
62338;SDS011;48368;53.406;6.214;2023-02-20T04:25:13;37.72;;;9.90;;
62338;SDS011;48368;53.406;6.214;2023-02-20T04:27:39;27.23;;;8.60;;
62338;SDS011;48368;53.406;6.214;2023-02-20T04:30:05;33.00;;;9.90;;
62338;SDS011;48368;53.406;6.214;2023-02-20T04:32:31;34.95;;;9.32;;
62338;SDS011;48368;53.406;6.214;2023-02-20T04:34:57;25.17;;;8.38;;
62338;SDS011;48368;53.406;6.214;2023-02-20T04:37:22;35.05;;;8.70;;
62338;SDS011;48368;53.406;6.214;2023-02-20T04:39:48;36.63;;;11.25;;
62338;SDS011;48368;53.406;6.214;2023-02-20T04:42:14;25.08;;;8.45;;
62338;SDS011;48368;53.406;6.214;2023-02-20T04:44:39;34.67;;;10.00;;
62338;SDS011;48368;53.406;6.214;2023-02-20T04:47:07;36.78;;;10.07;;
62338;SDS011;48368;53.406;6.214;2023-02-20T04:49:37;30.05;;;9.18;;
62338;SDS011;48368;53.406;6.214;2023-02-20T04:52:03;25.38;;;8.80;;
62338;SDS011;48368;53.406;6.214;2023-02-20T04:54:28;31.00;;;10.68;;
62338;SDS011;48368;53.406;6.214;2023-02-20T04:56:54;31.25;;;8.82;;
62338;SDS011;48368;53.406;6.214;2023-02-20T04:59:20;30.70;;;8.82;;
62338;SDS011;48368;53.406;6.214;2023-02-20T05:01:46;25.42;;;8.18;;
62338;SDS011;48368;53.406;6.214;2023-02-20T05:04:14;23.52;;;7.35;;
62338;SDS011;48368;53.406;6.214;2023-02-20T05:06:41;26.17;;;7.90;;
62338;SDS011;48368;53.406;6.214;2023-02-20T05:09:08;29.17;;;8.20;;
62338;SDS011;48368;53.406;6.214;2023-02-20T05:11:35;29.92;;;9.50;;
62338;SDS011;48368;53.406;6.214;2023-02-20T05:14:02;23.58;;;7.85;;
62338;SDS011;48368;53.406;6.214;2023-02-20T05:16:28;30.42;;;7.90;;
62338;SDS011;48368;53.406;6.214;2023-02-20T05:18:54;24.15;;;7.45;;
62338;SDS011;48368;53.406;6.214;2023-02-20T05:21:19;27.90;;;7.30;;
62338;SDS011;48368;53.406;6.214;2023-02-20T05:24:04;29.45;;;8.63;;
62338;SDS011;48368;53.406;6.214;2023-02-20T05:26:30;33.28;;;9.48;;
62338;SDS011;48368;53.406;6.214;2023-02-20T05:28:56;27.83;;;8.80;;
62338;SDS011;48368;53.406;6.214;2023-02-20T05:31:21;25.73;;;8.43;;
62338;SDS011;48368;53.406;6.214;2023-02-20T05:33:47;24.42;;;7.00;;
62338;SDS011;48368;53.406;6.214;2023-02-20T05:36:12;25.63;;;7.65;;
62338;SDS011;48368;53.406;6.214;2023-02-20T05:38:38;21.77;;;6.88;;
62338;SDS011;48368;53.406;6.214;2023-02-20T05:41:05;25.30;;;8.43;;
62338;SDS011;48368;53.406;6.214;2023-02-20T05:43:32;28.30;;;9.00;;
62338;SDS011;48368;53.406;6.214;2023-02-20T05:45:57;23.10;;;7.03;;
62338;SDS011;48368;53.406;6.214;2023-02-20T05:48:23;27.13;;;7.78;;
62338;SDS011;48368;53.406;6.214;2023-02-20T05:50:48;21.98;;;6.68;;
62338;SDS011;48368;53.406;6.214;2023-02-20T05:53:14;20.63;;;7.93;;
62338;SDS011;48368;53.406;6.214;2023-02-20T05:55:40;23.65;;;7.15;;
62338;SDS011;48368;53.406;6.214;2023-02-20T05:58:06;22.65;;;6.68;;
62338;SDS011;48368;53.406;6.214;2023-02-20T06:00:32;24.83;;;7.10;;
62338;SDS011;48368;53.406;6.214;2023-02-20T06:02:57;28.52;;;7.00;;
62338;SDS011;48368;53.406;6.214;2023-02-20T06:05:23;27.58;;;8.13;;
62338;SDS011;48368;53.406;6.214;2023-02-20T06:07:50;30.63;;;7.72;;
62338;SDS011;48368;53.406;6.214;2023-02-20T06:10:17;28.40;;;8.10;;
62338;SDS011;48368;53.406;6.214;2023-02-20T06:12:43;34.63;;;8.57;;
62338;SDS011;48368;53.406;6.214;2023-02-20T06:15:09;32.58;;;7.82;;
62338;SDS011;48368;53.406;6.214;2023-02-20T06:17:35;26.63;;;9.50;;
62338;SDS011;48368;53.406;6.214;2023-02-20T06:20:00;30.02;;;7.53;;
62338;SDS011;48368;53.406;6.214;2023-02-20T06:22:26;30.30;;;9.30;;
62338;SDS011;48368;53.406;6.214;2023-02-20T06:24:51;34.42;;;7.65;;
62338;SDS011;48368;53.406;6.214;2023-02-20T06:27:17;32.30;;;8.88;;
62338;SDS011;48368;53.406;6.214;2023-02-20T06:29:45;29.88;;;8.05;;
62338;SDS011;48368;53.406;6.214;2023-02-20T06:32:11;28.55;;;7.78;;
62338;SDS011;48368;53.406;6.214;2023-02-20T06:34:37;33.38;;;7.93;;
62338;SDS011;48368;53.406;6.214;2023-02-20T06:37:02;32.50;;;7.72;;
62338;SDS011;48368;53.406;6.214;2023-02-20T06:39:29;28.45;;;8.65;;
62338;SDS011;48368;53.406;6.214;2023-02-20T06:41:56;27.15;;;8.68;;
62338;SDS011;48368;53.406;6.214;2023-02-20T06:44:22;33.25;;;8.35;;
62338;SDS011;48368;53.406;6.214;2023-02-20T06:46:47;33.53;;;9.48;;
62338;SDS011;48368;53.406;6.214;2023-02-20T06:49:13;37.88;;;9.80;;
62338;SDS011;48368;53.406;6.214;2023-02-20T06:51:39;27.30;;;7.85;;
62338;SDS011;48368;53.406;6.214;2023-02-20T06:54:05;33.25;;;9.23;;
62338;SDS011;48368;53.406;6.214;2023-02-20T06:56:33;31.45;;;8.30;;
62338;SDS011;48368;53.406;6.214;2023-02-20T06:59:00;37.95;;;9.30;;
62338;SDS011;48368;53.406;6.214;2023-02-20T07:01:29;34.65;;;8.73;;
62338;SDS011;48368;53.406;6.214;2023-02-20T07:03:56;30.27;;;8.15;;
62338;SDS011;48368;53.406;6.214;2023-02-20T07:06:23;25.40;;;7.97;;
62338;SDS011;48368;53.406;6.214;2023-02-20T07:08:49;25.35;;;7.78;;
62338;SDS011;48368;53.406;6.214;2023-02-20T07:11:16;25.42;;;7.82;;
62338;SDS011;48368;53.406;6.214;2023-02-20T07:13:43;21.48;;;7.88;;
62338;SDS011;48368;53.406;6.214;2023-02-20T07:16:09;36.95;;;7.55;;
62338;SDS011;48368;53.406;6.214;2023-02-20T07:18:34;32.28;;;10.23;;
62338;SDS011;48368;53.406;6.214;2023-02-20T07:21:00;27.88;;;8.10;;
62338;SDS011;48368;53.406;6.214;2023-02-20T07:23:26;29.15;;;9.25;;
62338;SDS011;48368;53.406;6.214;2023-02-20T07:25:52;34.03;;;10.25;;
62338;SDS011;48368;53.406;6.214;2023-02-20T07:28:18;40.30;;;10.40;;
62338;SDS011;48368;53.406;6.214;2023-02-20T07:45:40;24.77;;;9.10;;
62338;SDS011;48368;53.406;6.214;2023-02-20T07:48:06;31.95;;;10.30;;
62338;SDS011;48368;53.406;6.214;2023-02-20T07:50:32;31.98;;;9.15;;
62338;SDS011;48368;53.406;6.214;2023-02-20T07:52:58;33.45;;;9.70;;
62338;SDS011;48368;53.406;6.214;2023-02-20T07:55:24;27.42;;;9.32;;
62338;SDS011;48368;53.406;6.214;2023-02-20T07:57:49;30.13;;;10.20;;
62338;SDS011;48368;53.406;6.214;2023-02-20T08:00:18;32.28;;;9.75;;
62338;SDS011;48368;53.406;6.214;2023-02-20T08:02:45;25.92;;;9.73;;
62338;SDS011;48368;53.406;6.214;2023-02-20T08:05:11;29.45;;;9.98;;
62338;SDS011;48368;53.406;6.214;2023-02-20T08:07:37;36.17;;;9.93;;
62338;SDS011;48368;53.406;6.214;2023-02-20T08:10:04;34.17;;;10.73;;
62338;SDS011;48368;53.406;6.214;2023-02-20T08:12:30;29.50;;;9.00;;
62338;SDS011;48368;53.406;6.214;2023-02-20T08:14:55;31.13;;;9.32;;
62338;SDS011;48368;53.406;6.214;2023-02-20T08:17:21;33.15;;;8.60;;
62338;SDS011;48368;53.406;6.214;2023-02-20T08:19:46;28.67;;;9.32;;
62338;SDS011;48368;53.406;6.214;2023-02-20T08:22:12;31.20;;;9.13;;
62338;SDS011;48368;53.406;6.214;2023-02-20T08:24:38;24.80;;;9.30;;
62338;SDS011;48368;53.406;6.214;2023-02-20T08:27:03;30.10;;;8.93;;
62338;SDS011;48368;53.406;6.214;2023-02-20T12:26:58;30.42;;;6.70;;
62338;SDS011;48368;53.406;6.214;2023-02-20T13:06:16;25.40;;;6.40;;
62338;SDS011;48368;53.406;6.214;2023-02-20T13:29:26;27.73;;;5.82;;
62338;SDS011;48368;53.406;6.214;2023-02-20T13:51:38;33.17;;;7.72;;
62338;SDS011;48368;53.406;6.214;2023-02-20T13:59:23;28.85;;;6.05;;
62338;SDS011;48368;53.406;6.214;2023-02-20T14:01:59;24.90;;;5.85;;
62338;SDS011;48368;53.406;6.214;2023-02-20T14:05:54;27.70;;;6.40;;
62338;SDS011;48368;53.406;6.214;2023-02-20T14:07:46;20.77;;;5.32;;
62338;SDS011;48368;53.406;6.214;2023-02-20T14:10:29;20.25;;;5.97;;
62338;SDS011;48368;53.406;6.214;2023-02-20T14:13:00;27.40;;;5.75;;
62338;SDS011;48368;53.406;6.214;2023-02-20T14:15:32;28.48;;;7.28;;
62338;SDS011;48368;53.406;6.214;2023-02-20T14:18:12;22.35;;;6.85;;
62338;SDS011;48368;53.406;6.214;2023-02-20T14:20:48;28.17;;;6.53;;
62338;SDS011;48368;53.406;6.214;2023-02-20T14:23:26;18.70;;;5.70;;
62338;SDS011;48368;53.406;6.214;2023-02-20T14:28:24;21.67;;;6.22;;
62338;SDS011;48368;53.406;6.214;2023-02-20T14:34:00;22.55;;;5.93;;
62338;SDS011;48368;53.406;6.214;2023-02-20T14:41:50;21.27;;;4.72;;
62338;SDS011;48368;53.406;6.214;2023-02-20T14:44:39;22.02;;;5.25;;
62338;SDS011;48368;53.406;6.214;2023-02-20T14:47:09;27.92;;;6.93;;
62338;SDS011;48368;53.406;6.214;2023-02-20T14:49:37;28.40;;;6.15;;
62338;SDS011;48368;53.406;6.214;2023-02-20T14:54:35;19.58;;;6.22;;
62338;SDS011;48368;53.406;6.214;2023-02-20T14:57:05;25.45;;;5.38;;
62338;SDS011;48368;53.406;6.214;2023-02-20T14:59:36;23.73;;;6.05;;
62338;SDS011;48368;53.406;6.214;2023-02-20T15:05:04;34.60;;;6.78;;
62338;SDS011;48368;53.406;6.214;2023-02-20T15:07:32;24.33;;;5.75;;
62338;SDS011;48368;53.406;6.214;2023-02-20T15:09:59;19.10;;;4.88;;
62338;SDS011;48368;53.406;6.214;2023-02-20T15:12:38;16.70;;;4.40;;
62338;SDS011;48368;53.406;6.214;2023-02-20T15:17:31;18.08;;;5.10;;
62338;SDS011;48368;53.406;6.214;2023-02-20T15:19:59;16.80;;;4.15;;
62338;SDS011;48368;53.406;6.214;2023-02-20T15:22:35;17.95;;;5.90;;
62338;SDS011;48368;53.406;6.214;2023-02-20T15:33:51;20.00;;;5.50;;
62338;SDS011;48368;53.406;6.214;2023-02-20T15:36:19;23.65;;;5.65;;
62338;SDS011;48368;53.406;6.214;2023-02-20T15:38:53;21.58;;;6.10;;
62338;SDS011;48368;53.406;6.214;2023-02-20T15:41:20;18.63;;;5.15;;
62338;SDS011;48368;53.406;6.214;2023-02-20T15:43:47;19.88;;;5.35;;
62338;SDS011;48368;53.406;6.214;2023-02-20T15:46:13;23.75;;;6.32;;
62338;SDS011;48368;53.406;6.214;2023-02-20T15:48:40;17.60;;;5.80;;
62338;SDS011;48368;53.406;6.214;2023-02-20T15:51:07;22.88;;;5.32;;
62338;SDS011;48368;53.406;6.214;2023-02-20T15:53:40;24.15;;;5.55;;
62338;SDS011;48368;53.406;6.214;2023-02-20T15:56:09;17.95;;;5.05;;
62338;SDS011;48368;53.406;6.214;2023-02-20T15:58:36;19.48;;;5.43;;
62338;SDS011;48368;53.406;6.214;2023-02-20T16:01:03;17.88;;;5.53;;
62338;SDS011;48368;53.406;6.214;2023-02-20T16:03:30;19.90;;;5.57;;
62338;SDS011;48368;53.406;6.214;2023-02-20T16:05:57;22.10;;;6.15;;
62338;SDS011;48368;53.406;6.214;2023-02-20T16:08:24;18.98;;;5.07;;
62338;SDS011;48368;53.406;6.214;2023-02-20T16:10:51;21.63;;;5.25;;
62338;SDS011;48368;53.406;6.214;2023-02-20T16:13:28;24.73;;;5.95;;
62338;SDS011;48368;53.406;6.214;2023-02-20T16:18:59;14.75;;;5.45;;
62338;SDS011;48368;53.406;6.214;2023-02-20T16:21:25;23.02;;;5.70;;
62338;SDS011;48368;53.406;6.214;2023-02-20T16:23:51;21.98;;;5.50;;
62338;SDS011;48368;53.406;6.214;2023-02-20T16:26:19;23.45;;;5.88;;
62338;SDS011;48368;53.406;6.214;2023-02-20T16:29:16;25.10;;;6.15;;
62338;SDS011;48368;53.406;6.214;2023-02-20T16:34:29;23.23;;;5.70;;
62338;SDS011;48368;53.406;6.214;2023-02-20T16:36:56;25.23;;;5.93;;
62338;SDS011;48368;53.406;6.214;2023-02-20T16:39:31;20.55;;;5.07;;
62338;SDS011;48368;53.406;6.214;2023-02-20T16:41:57;17.27;;;6.53;;
62338;SDS011;48368;53.406;6.214;2023-02-20T16:44:37;27.50;;;6.72;;
62338;SDS011;48368;53.406;6.214;2023-02-20T16:47:13;24.20;;;6.70;;
62338;SDS011;48368;53.406;6.214;2023-02-20T16:49:42;24.90;;;6.30;;
62338;SDS011;48368;53.406;6.214;2023-02-20T16:52:20;25.90;;;6.28;;
62338;SDS011;48368;53.406;6.214;2023-02-20T16:54:48;26.35;;;6.40;;
62338;SDS011;48368;53.406;6.214;2023-02-20T16:57:15;28.88;;;7.65;;
62338;SDS011;48368;53.406;6.214;2023-02-20T16:59:41;27.77;;;6.45;;
62338;SDS011;48368;53.406;6.214;2023-02-20T17:02:09;21.13;;;5.75;;
62338;SDS011;48368;53.406;6.214;2023-02-20T17:04:39;22.70;;;6.22;;
62338;SDS011;48368;53.406;6.214;2023-02-20T17:07:05;24.08;;;6.53;;
62338;SDS011;48368;53.406;6.214;2023-02-20T17:09:34;24.02;;;5.55;;
62338;SDS011;48368;53.406;6.214;2023-02-20T17:12:00;23.13;;;6.10;;
62338;SDS011;48368;53.406;6.214;2023-02-20T17:14:26;33.55;;;7.40;;
62338;SDS011;48368;53.406;6.214;2023-02-20T17:16:51;31.10;;;7.97;;
62338;SDS011;48368;53.406;6.214;2023-02-20T17:19:17;23.90;;;5.75;;
62338;SDS011;48368;53.406;6.214;2023-02-20T17:21:46;32.38;;;7.18;;
62338;SDS011;48368;53.406;6.214;2023-02-20T17:24:16;27.98;;;6.47;;
62338;SDS011;48368;53.406;6.214;2023-02-20T17:26:43;24.00;;;6.35;;
62338;SDS011;48368;53.406;6.214;2023-02-20T17:29:10;20.63;;;6.15;;
62338;SDS011;48368;53.406;6.214;2023-02-20T17:31:36;33.70;;;7.30;;
62338;SDS011;48368;53.406;6.214;2023-02-20T17:34:04;31.65;;;7.13;;
62338;SDS011;48368;53.406;6.214;2023-02-20T17:36:30;25.77;;;5.75;;
62338;SDS011;48368;53.406;6.214;2023-02-20T17:38:57;36.40;;;8.60;;
62338;SDS011;48368;53.406;6.214;2023-02-20T17:41:23;28.30;;;8.07;;
62338;SDS011;48368;53.406;6.214;2023-02-20T17:43:49;25.63;;;7.35;;
62338;SDS011;48368;53.406;6.214;2023-02-20T17:46:18;32.63;;;7.43;;
62338;SDS011;48368;53.406;6.214;2023-02-20T17:48:44;24.75;;;7.28;;
62338;SDS011;48368;53.406;6.214;2023-02-20T17:51:18;26.92;;;6.75;;
62338;SDS011;48368;53.406;6.214;2023-02-20T17:53:44;27.55;;;6.22;;
62338;SDS011;48368;53.406;6.214;2023-02-20T17:56:12;26.58;;;6.47;;
62338;SDS011;48368;53.406;6.214;2023-02-20T17:58:41;24.48;;;5.93;;
62338;SDS011;48368;53.406;6.214;2023-02-20T18:01:07;27.40;;;8.10;;
62338;SDS011;48368;53.406;6.214;2023-02-20T18:03:34;32.75;;;7.15;;
62338;SDS011;48368;53.406;6.214;2023-02-20T18:05:59;32.65;;;6.47;;
62338;SDS011;48368;53.406;6.214;2023-02-20T18:08:26;25.88;;;7.75;;
62338;SDS011;48368;53.406;6.214;2023-02-20T18:10:51;37.55;;;7.43;;
62338;SDS011;48368;53.406;6.214;2023-02-20T18:13:17;25.38;;;6.10;;
62338;SDS011;48368;53.406;6.214;2023-02-20T18:15:43;28.65;;;7.15;;
62338;SDS011;48368;53.406;6.214;2023-02-20T18:18:10;29.48;;;7.85;;
62338;SDS011;48368;53.406;6.214;2023-02-20T18:20:36;29.63;;;8.00;;
62338;SDS011;48368;53.406;6.214;2023-02-20T18:23:02;25.10;;;7.32;;
62338;SDS011;48368;53.406;6.214;2023-02-20T18:25:27;25.67;;;8.70;;
62338;SDS011;48368;53.406;6.214;2023-02-20T18:27:54;27.67;;;7.47;;
62338;SDS011;48368;53.406;6.214;2023-02-20T18:30:20;24.67;;;7.70;;
62338;SDS011;48368;53.406;6.214;2023-02-20T18:32:46;29.95;;;8.32;;
62338;SDS011;48368;53.406;6.214;2023-02-20T18:35:12;23.90;;;6.70;;
62338;SDS011;48368;53.406;6.214;2023-02-20T18:37:40;33.17;;;7.57;;
62338;SDS011;48368;53.406;6.214;2023-02-20T18:40:06;29.58;;;7.60;;
62338;SDS011;48368;53.406;6.214;2023-02-20T18:42:32;33.70;;;8.70;;
62338;SDS011;48368;53.406;6.214;2023-02-20T18:44:58;34.70;;;8.18;;
62338;SDS011;48368;53.406;6.214;2023-02-20T18:47:23;28.83;;;7.70;;
62338;SDS011;48368;53.406;6.214;2023-02-20T18:49:49;34.67;;;8.30;;
62338;SDS011;48368;53.406;6.214;2023-02-20T18:52:16;25.48;;;7.70;;
62338;SDS011;48368;53.406;6.214;2023-02-20T18:54:45;30.70;;;7.47;;
62338;SDS011;48368;53.406;6.214;2023-02-20T18:57:11;27.80;;;7.30;;
62338;SDS011;48368;53.406;6.214;2023-02-20T18:59:40;27.92;;;7.90;;
62338;SDS011;48368;53.406;6.214;2023-02-20T19:02:10;29.65;;;8.02;;
62338;SDS011;48368;53.406;6.214;2023-02-20T19:04:37;34.03;;;7.95;;
62338;SDS011;48368;53.406;6.214;2023-02-20T19:07:03;33.90;;;7.45;;
62338;SDS011;48368;53.406;6.214;2023-02-20T19:09:30;23.52;;;6.72;;
62338;SDS011;48368;53.406;6.214;2023-02-20T19:12:00;33.20;;;8.07;;
62338;SDS011;48368;53.406;6.214;2023-02-20T19:14:28;32.75;;;7.60;;
62338;SDS011;48368;53.406;6.214;2023-02-20T19:16:55;33.00;;;7.28;;
62338;SDS011;48368;53.406;6.214;2023-02-20T19:19:22;28.52;;;7.78;;
62338;SDS011;48368;53.406;6.214;2023-02-20T19:21:51;36.22;;;7.50;;
62338;SDS011;48368;53.406;6.214;2023-02-20T19:24:18;34.47;;;8.65;;
62338;SDS011;48368;53.406;6.214;2023-02-20T19:26:44;29.85;;;8.35;;
62338;SDS011;48368;53.406;6.214;2023-02-20T19:29:10;40.15;;;9.10;;
62338;SDS011;48368;53.406;6.214;2023-02-20T19:31:37;29.00;;;6.82;;
62338;SDS011;48368;53.406;6.214;2023-02-20T19:34:03;30.83;;;6.85;;
62338;SDS011;48368;53.406;6.214;2023-02-20T19:36:31;32.95;;;7.90;;
62338;SDS011;48368;53.406;6.214;2023-02-20T19:38:57;33.38;;;7.93;;
62338;SDS011;48368;53.406;6.214;2023-02-20T19:41:23;32.85;;;7.82;;
62338;SDS011;48368;53.406;6.214;2023-02-20T19:43:48;30.60;;;6.85;;
62338;SDS011;48368;53.406;6.214;2023-02-20T19:46:18;21.42;;;6.43;;
62338;SDS011;48368;53.406;6.214;2023-02-20T19:48:46;27.77;;;7.38;;
62338;SDS011;48368;53.406;6.214;2023-02-20T21:43:18;28.48;;;8.52;;
62338;SDS011;48368;53.406;6.214;2023-02-20T21:46:03;33.45;;;8.32;;
62338;SDS011;48368;53.406;6.214;2023-02-20T21:48:28;30.08;;;7.65;;
62338;SDS011;48368;53.406;6.214;2023-02-20T21:50:54;28.63;;;7.45;;
62338;SDS011;48368;53.406;6.214;2023-02-20T21:53:20;26.58;;;9.35;;
62338;SDS011;48368;53.406;6.214;2023-02-20T21:55:45;26.77;;;9.85;;
62338;SDS011;48368;53.406;6.214;2023-02-20T21:58:11;35.15;;;8.73;;
62338;SDS011;48368;53.406;6.214;2023-02-20T22:00:37;30.25;;;8.55;;
62338;SDS011;48368;53.406;6.214;2023-02-20T22:03:03;24.27;;;7.47;;
62338;SDS011;48368;53.406;6.214;2023-02-20T22:05:29;28.85;;;7.85;;
62338;SDS011;48368;53.406;6.214;2023-02-20T22:07:55;32.35;;;8.80;;
62338;SDS011;48368;53.406;6.214;2023-02-20T22:10:39;29.27;;;7.78;;
62338;SDS011;48368;53.406;6.214;2023-02-20T22:13:23;29.92;;;6.97;;
62338;SDS011;48368;53.406;6.214;2023-02-20T22:16:08;22.17;;;5.72;;
62338;SDS011;48368;53.406;6.214;2023-02-20T22:18:53;25.52;;;5.35;;
62338;SDS011;48368;53.406;6.214;2023-02-20T22:21:38;19.98;;;5.93;;
62338;SDS011;48368;53.406;6.214;2023-02-20T22:24:22;35.80;;;5.78;;
62338;SDS011;48368;53.406;6.214;2023-02-20T22:27:07;19.58;;;5.05;;
62338;SDS011;48368;53.406;6.214;2023-02-20T22:29:52;26.88;;;4.63;;
62338;SDS011;48368;53.406;6.214;2023-02-20T22:32:36;22.67;;;5.13;;
62338;SDS011;48368;53.406;6.214;2023-02-20T22:35:21;25.55;;;5.90;;
62338;SDS011;48368;53.406;6.214;2023-02-20T22:38:05;29.25;;;5.30;;
62338;SDS011;48368;53.406;6.214;2023-02-20T22:40:49;26.55;;;4.57;;
62338;SDS011;48368;53.406;6.214;2023-02-20T22:43:33;20.52;;;3.95;;
62338;SDS011;48368;53.406;6.214;2023-02-20T22:46:18;17.60;;;4.20;;
62338;SDS011;48368;53.406;6.214;2023-02-20T22:49:05;23.98;;;4.43;;
62338;SDS011;48368;53.406;6.214;2023-02-20T22:51:50;19.65;;;4.32;;
62338;SDS011;48368;53.406;6.214;2023-02-20T22:54:34;22.52;;;4.47;;
62338;SDS011;48368;53.406;6.214;2023-02-20T22:57:18;22.10;;;4.20;;
62338;SDS011;48368;53.406;6.214;2023-02-20T23:00:03;30.48;;;4.82;;
62338;SDS011;48368;53.406;6.214;2023-02-20T23:02:49;19.13;;;3.58;;
62338;SDS011;48368;53.406;6.214;2023-02-20T23:05:33;23.77;;;4.07;;
62338;SDS011;48368;53.406;6.214;2023-02-20T23:08:18;23.00;;;4.35;;
62338;SDS011;48368;53.406;6.214;2023-02-20T23:11:02;20.88;;;4.18;;
62338;SDS011;48368;53.406;6.214;2023-02-20T23:13:46;24.38;;;3.80;;
62338;SDS011;48368;53.406;6.214;2023-02-20T23:16:30;20.08;;;4.28;;
62338;SDS011;48368;53.406;6.214;2023-02-20T23:19:15;17.15;;;3.95;;